Time;durP1;ratioP1;P1;durP2;ratioP2;P2;SDS_P1;SDS_P2;PMS_P1;PMS_P2;Temp;Humidity;BMP_temperature;BMP_pressure;BME280_temperature;BME280_humidity;BME280_pressure;Samples;Min_cycle;Max_cycle;Signal;HPM_P1;HPM_P2
2023/10/07 00:00:51;;;;;;;3.93;1.97;;;;;;;;;;5068186;28;21104;-86
2023/10/07 00:03:20;;;;;;;4.97;3.03;;;;;;;;;;5068648;28;20517;-85
2023/10/07 00:05:50;;;;;;;4.73;2.70;;;;;;;;;;5068940;28;20939;-86
2023/10/07 00:08:19;;;;;;;4.00;2.20;;;;;;;;;;5075545;28;20437;-85
2023/10/07 00:10:49;;;;;;;4.10;2.73;;;;;;;;;;5059294;28;20456;-86
2023/10/07 00:13:19;;;;;;;4.83;2.83;;;;;;;;;;5075784;28;20472;-85
2023/10/07 00:15:49;;;;;;;5.10;2.80;;;;;;;;;;5057245;28;20539;-86
2023/10/07 00:18:18;;;;;;;3.47;2.33;;;;;;;;;;5056886;28;20445;-85
2023/10/07 00:20:48;;;;;;;6.53;2.20;;;;;;;;;;5067683;28;21146;-86
2023/10/07 00:23:20;;;;;;;3.80;2.70;;;;;;;;;;5068092;28;20461;-85
2023/10/07 00:25:50;;;;;;;4.87;2.83;;;;;;;;;;5068084;28;20943;-86
2023/10/07 00:28:27;;;;;;;4.00;2.70;;;;;;;;;;5067744;28;20516;-86
2023/10/07 00:30:55;;;;;;;4.70;3.10;;;;;;;;;;5064309;28;20489;-85
2023/10/07 00:33:23;;;;;;;4.73;2.40;;;;;;;;;;5064768;28;20440;-86
2023/10/07 00:35:53;;;;;;;4.23;2.60;;;;;;;;;;5068720;28;20498;-86
2023/10/07 00:38:22;;;;;;;4.07;2.23;;;;;;;;;;5058563;28;20527;-86
2023/10/07 00:40:53;;;;;;;5.70;4.60;;;;;;;;;;5064908;28;20481;-86
2023/10/07 00:43:26;;;;;;;6.13;3.60;;;;;;;;;;5063914;28;20541;-86
2023/10/07 00:45:59;;;;;;;4.27;2.67;;;;;;;;;;5056235;28;20540;-86
2023/10/07 00:48:42;;;;;;;4.13;2.60;;;;;;;;;;5064035;28;20448;-86
2023/10/07 00:51:11;;;;;;;5.00;3.03;;;;;;;;;;5075604;28;20475;-86
2023/10/07 00:53:45;;;;;;;4.87;2.50;;;;;;;;;;5067689;28;20452;-85
2023/10/07 00:56:13;;;;;;;5.50;3.00;;;;;;;;;;5066331;28;20947;-85
2023/10/07 00:58:46;;;;;;;4.10;2.43;;;;;;;;;;5073751;28;20445;-86
2023/10/07 01:01:14;;;;;;;3.53;2.00;;;;;;;;;;5066768;28;20493;-86
2023/10/07 01:03:54;;;;;;;4.17;2.80;;;;;;;;;;5071487;28;20825;-86
2023/10/07 01:06:31;;;;;;;5.60;2.80;;;;;;;;;;5055450;28;20445;-86
2023/10/07 01:09:08;;;;;;;3.10;2.13;;;;;;;;;;5066171;28;20466;-85
2023/10/07 01:11:39;;;;;;;3.43;2.10;;;;;;;;;;5075136;28;20456;-86
2023/10/07 01:14:09;;;;;;;4.43;2.30;;;;;;;;;;5068540;28;20463;-86
2023/10/07 01:16:44;;;;;;;4.50;2.53;;;;;;;;;;5058288;28;20829;-85
2023/10/07 01:19:26;;;;;;;4.80;2.50;;;;;;;;;;5083868;28;20443;-86
2023/10/07 01:21:58;;;;;;;5.33;2.77;;;;;;;;;;5074163;28;20485;-85
2023/10/07 01:24:49;;;;;;;3.43;2.10;;;;;;;;;;5064822;28;20505;-86
2023/10/07 01:27:29;;;;;;;6.07;2.90;;;;;;;;;;5074372;28;20448;-85
2023/10/07 01:30:06;;;;;;;4.83;2.57;;;;;;;;;;5059920;28;20539;-84
2023/10/07 01:32:34;;;;;;;3.97;2.37;;;;;;;;;;5072934;28;20440;-85
2023/10/07 01:35:05;;;;;;;4.83;2.90;;;;;;;;;;5059813;28;20445;-85
2023/10/07 01:37:43;;;;;;;5.07;2.40;;;;;;;;;;5063248;28;20444;-85
2023/10/07 01:40:16;;;;;;;4.37;2.90;;;;;;;;;;5068166;28;20460;-86
2023/10/07 01:42:46;;;;;;;4.13;2.30;;;;;;;;;;5070065;28;20476;-86
2023/10/07 01:45:21;;;;;;;4.90;2.27;;;;;;;;;;5061593;28;20499;-85
2023/10/07 01:47:49;;;;;;;4.20;2.50;;;;;;;;;;5061523;28;20893;-86
2023/10/07 01:50:18;;;;;;;4.67;2.67;;;;;;;;;;5061620;28;20499;-85
2023/10/07 01:52:48;;;;;;;3.90;2.40;;;;;;;;;;5074081;28;20441;-86
2023/10/07 01:55:17;;;;;;;4.77;2.30;;;;;;;;;;5066338;28;20532;-85
2023/10/07 01:57:45;;;;;;;5.07;2.60;;;;;;;;;;5067174;28;20484;-85
2023/10/07 02:00:13;;;;;;;3.50;2.13;;;;;;;;;;5065747;28;20542;-84
2023/10/07 02:02:49;;;;;;;8.87;3.93;;;;;;;;;;5069488;28;20558;-86
2023/10/07 02:05:18;;;;;;;4.43;2.50;;;;;;;;;;5065773;28;20962;-86
2023/10/07 02:07:46;;;;;;;4.90;2.53;;;;;;;;;;5071283;28;20804;-84
2023/10/07 02:10:23;;;;;;;5.30;3.27;;;;;;;;;;5063823;28;20473;-85
2023/10/07 02:12:54;;;;;;;4.43;2.53;;;;;;;;;;5063686;28;20543;-85
2023/10/07 02:15:22;;;;;;;5.13;2.37;;;;;;;;;;5062730;28;20456;-85
2023/10/07 02:17:55;;;;;;;6.33;2.70;;;;;;;;;;5052581;28;21001;-85
2023/10/07 02:20:38;;;;;;;3.30;2.30;;;;;;;;;;5058910;28;20973;-86
2023/10/07 02:23:11;;;;;;;4.67;2.30;;;;;;;;;;5066046;28;20440;-85
2023/10/07 02:25:40;;;;;;;5.43;2.43;;;;;;;;;;5065192;28;21191;-85
2023/10/07 02:28:09;;;;;;;4.57;2.77;;;;;;;;;;5069566;28;20452;-86
2023/10/07 02:30:49;;;;;;;3.77;2.33;;;;;;;;;;5069660;28;20464;-85
2023/10/07 02:33:20;;;;;;;6.27;2.60;;;;;;;;;;5062384;28;20440;-85
2023/10/07 02:35:54;;;;;;;4.83;3.17;;;;;;;;;;5063723;28;20498;-85
2023/10/07 02:38:28;;;;;;;5.80;3.20;;;;;;;;;;5062431;28;20448;-86
2023/10/07 02:41:06;;;;;;;3.80;2.30;;;;;;;;;;5070441;28;20475;-87
2023/10/07 02:43:35;;;;;;;3.87;2.57;;;;;;;;;;5072942;28;20447;-85
2023/10/07 02:46:05;;;;;;;4.50;2.50;;;;;;;;;;5068590;28;20477;-85
2023/10/07 02:48:38;;;;;;;5.93;3.20;;;;;;;;;;5073661;28;20432;-85
2023/10/07 02:51:10;;;;;;;4.67;2.57;;;;;;;;;;5074160;28;20448;-86
2023/10/07 02:53:38;;;;;;;7.60;2.50;;;;;;;;;;5086668;28;20466;-85
2023/10/07 02:56:16;;;;;;;4.67;2.50;;;;;;;;;;5057136;28;20441;-85
2023/10/07 02:58:59;;;;;;;4.43;2.80;;;;;;;;;;5073583;28;20811;-85
2023/10/07 03:01:28;;;;;;;4.70;2.47;;;;;;;;;;5066295;28;20477;-85
2023/10/07 03:04:00;;;;;;;5.80;2.70;;;;;;;;;;5063257;28;20460;-86
2023/10/07 03:06:28;;;;;;;5.67;2.63;;;;;;;;;;5065015;28;20462;-86
2023/10/07 03:09:09;;;;;;;3.60;2.20;;;;;;;;;;5068617;28;20526;-85
2023/10/07 03:11:48;;;;;;;5.50;2.40;;;;;;;;;;5069504;28;20475;-85
2023/10/07 03:14:25;;;;;;;3.37;2.00;;;;;;;;;;5073375;28;20463;-86
2023/10/07 03:16:59;;;;;;;4.37;2.20;;;;;;;;;;5067807;28;20452;-86
2023/10/07 03:19:45;;;;;;;3.97;2.30;;;;;;;;;;5072650;28;20444;-85
2023/10/07 03:22:15;;;;;;;3.20;2.00;;;;;;;;;;5074387;28;20563;-86
2023/10/07 03:24:42;;;;;;;4.17;2.40;;;;;;;;;;5073663;28;20895;-86
2023/10/07 03:27:21;;;;;;;3.43;2.20;;;;;;;;;;5063695;28;20447;-85
2023/10/07 03:30:00;;;;;;;5.47;2.47;;;;;;;;;;5063656;28;20547;-85
2023/10/07 03:32:32;;;;;;;4.33;2.20;;;;;;;;;;5070568;28;20938;-86
2023/10/07 03:35:00;;;;;;;3.97;2.73;;;;;;;;;;5060862;28;20445;-85
2023/10/07 03:37:28;;;;;;;3.20;2.10;;;;;;;;;;5072308;28;20864;-85
2023/10/07 03:40:25;;;;;;;6.43;2.20;;;;;;;;;;5067728;28;20468;-86
2023/10/07 03:42:52;;;;;;;4.70;2.40;;;;;;;;;;5067968;28;20891;-85
2023/10/07 03:45:22;;;;;;;6.17;2.83;;;;;;;;;;5074492;28;20440;-85
2023/10/07 03:47:50;;;;;;;6.57;2.80;;;;;;;;;;5064746;28;20504;-85
2023/10/07 03:50:34;;;;;;;3.90;2.10;;;;;;;;;;5071663;28;20522;-85
2023/10/07 03:53:02;;;;;;;3.53;2.30;;;;;;;;;;5068985;28;20915;-85
2023/10/07 03:55:30;;;;;;;6.60;2.40;;;;;;;;;;5075310;28;20821;-85
2023/10/07 03:57:58;;;;;;;3.50;2.13;;;;;;;;;;5074231;28;20462;-84
2023/10/07 04:00:33;;;;;;;5.83;2.37;;;;;;;;;;5074747;28;20472;-85
2023/10/07 04:03:07;;;;;;;5.27;2.97;;;;;;;;;;5073839;28;20893;-85
2023/10/07 04:05:41;;;;;;;3.90;2.43;;;;;;;;;;5071770;28;20445;-85
2023/10/07 04:08:09;;;;;;;5.77;2.80;;;;;;;;;;5054590;28;20437;-85
2023/10/07 04:10:43;;;;;;;4.73;2.23;;;;;;;;;;5063920;28;20484;-85
2023/10/07 04:13:21;;;;;;;3.43;2.23;;;;;;;;;;5069420;28;20448;-86
2023/10/07 04:15:52;;;;;;;5.90;2.20;;;;;;;;;;5065995;28;20448;-86
2023/10/07 04:18:23;;;;;;;3.50;2.50;;;;;;;;;;5073661;28;20959;-86
2023/10/07 04:20:58;;;;;;;4.27;2.40;;;;;;;;;;5070192;28;20496;-86
2023/10/07 04:23:25;;;;;;;3.43;2.70;;;;;;;;;;5077598;28;20476;-86
2023/10/07 04:25:55;;;;;;;7.90;2.40;;;;;;;;;;5088692;28;20441;-86
2023/10/07 04:28:25;;;;;;;4.90;2.57;;;;;;;;;;5072619;28;20449;-84
2023/10/07 04:30:54;;;;;;;4.63;1.90;;;;;;;;;;5065301;28;20468;-85
2023/10/07 04:33:32;;;;;;;5.10;2.37;;;;;;;;;;5065115;28;20897;-85
2023/10/07 04:36:04;;;;;;;3.30;1.90;;;;;;;;;;5072447;28;20535;-85
2023/10/07 04:38:52;;;;;;;6.23;2.57;;;;;;;;;;5065536;28;20515;-86
2023/10/07 04:41:32;;;;;;;5.57;3.17;;;;;;;;;;5072867;28;20979;-85
2023/10/07 04:44:20;;;;;;;4.70;2.40;;;;;;;;;;5066481;28;20448;-86
2023/10/07 04:46:56;;;;;;;3.43;2.20;;;;;;;;;;5073042;28;20452;-87
2023/10/07 04:49:36;;;;;;;4.23;2.23;;;;;;;;;;5064809;28;20510;-86
2023/10/07 04:52:06;;;;;;;5.70;2.53;;;;;;;;;;5061534;28;20445;-86
2023/10/07 04:54:35;;;;;;;3.53;2.40;;;;;;;;;;5061374;28;20464;-84
2023/10/07 04:57:09;;;;;;;6.90;2.80;;;;;;;;;;5060098;28;20452;-86
2023/10/07 04:59:45;;;;;;;3.90;2.40;;;;;;;;;;5072048;28;20484;-86
2023/10/07 05:02:15;;;;;;;7.97;2.53;;;;;;;;;;5065167;28;20471;-86
2023/10/07 05:04:48;;;;;;;5.23;2.63;;;;;;;;;;5060306;28;20532;-86
2023/10/07 05:07:24;;;;;;;2.90;1.97;;;;;;;;;;5068973;28;20440;-86
2023/10/07 05:09:50;;;;;;;6.70;2.30;;;;;;;;;;5065613;28;20502;-86
2023/10/07 05:12:19;;;;;;;4.43;2.50;;;;;;;;;;5064263;28;20452;-86
2023/10/07 05:14:46;;;;;;;4.40;2.27;;;;;;;;;;5061722;28;20465;-86
2023/10/07 05:17:16;;;;;;;4.70;2.50;;;;;;;;;;5061332;28;20434;-86
2023/10/07 05:19:42;;;;;;;3.37;2.10;;;;;;;;;;5071442;28;20472;-86
2023/10/07 05:22:15;;;;;;;4.27;2.47;;;;;;;;;;5065170;28;20557;-86
2023/10/07 05:24:46;;;;;;;6.60;3.10;;;;;;;;;;5070617;28;20456;-86
2023/10/07 05:27:13;;;;;;;5.23;2.40;;;;;;;;;;5056954;28;20456;-85
2023/10/07 05:29:43;;;;;;;4.70;2.40;;;;;;;;;;5062779;28;20874;-86
2023/10/07 05:32:11;;;;;;;3.50;2.20;;;;;;;;;;5063815;28;20441;-85
2023/10/07 05:34:40;;;;;;;4.93;2.67;;;;;;;;;;5063272;28;20445;-87
2023/10/07 05:37:11;;;;;;;7.03;3.50;;;;;;;;;;5067608;28;20799;-86
2023/10/07 05:39:41;;;;;;;7.63;2.80;;;;;;;;;;5073656;28;20524;-86
2023/10/07 05:42:08;;;;;;;5.27;2.07;;;;;;;;;;5059439;28;20508;-86
2023/10/07 05:44:37;;;;;;;5.73;2.60;;;;;;;;;;5072290;28;20452;-86
2023/10/07 05:47:05;;;;;;;5.30;3.30;;;;;;;;;;5074089;28;20483;-86
2023/10/07 05:49:33;;;;;;;4.70;2.43;;;;;;;;;;5074055;28;20544;-86
2023/10/07 05:52:04;;;;;;;4.50;2.50;;;;;;;;;;5067828;28;20847;-86
2023/10/07 05:54:31;;;;;;;3.63;2.47;;;;;;;;;;5073037;28;20460;-86
2023/10/07 05:56:59;;;;;;;5.00;2.73;;;;;;;;;;5087779;28;20433;-87
2023/10/07 05:59:32;;;;;;;4.73;2.77;;;;;;;;;;5084050;28;20444;-86
2023/10/07 06:02:01;;;;;;;4.93;2.53;;;;;;;;;;5064031;28;20484;-87
2023/10/07 06:04:29;;;;;;;5.33;3.20;;;;;;;;;;5064568;28;20453;-86
2023/10/07 06:06:57;;;;;;;6.00;3.63;;;;;;;;;;5066711;28;20947;-86
2023/10/07 06:09:25;;;;;;;5.50;3.70;;;;;;;;;;5066492;28;20438;-86
2023/10/07 06:11:53;;;;;;;5.93;3.30;;;;;;;;;;5066011;28;20445;-85
2023/10/07 06:14:20;;;;;;;5.30;2.90;;;;;;;;;;5072245;28;20444;-86
2023/10/07 06:16:47;;;;;;;4.03;2.80;;;;;;;;;;5064534;28;20472;-86
2023/10/07 06:19:17;;;;;;;3.90;2.73;;;;;;;;;;5071108;28;20436;-86
2023/10/07 06:21:50;;;;;;;4.13;2.17;;;;;;;;;;5061583;28;20445;-87
2023/10/07 06:24:21;;;;;;;6.90;2.60;;;;;;;;;;5066430;28;20433;-88
2023/10/07 06:26:53;;;;;;;6.80;4.40;;;;;;;;;;5064624;28;20493;-87
2023/10/07 06:29:20;;;;;;;5.30;4.10;;;;;;;;;;5064453;28;20789;-87
2023/10/07 06:31:55;;;;;;;6.40;4.00;;;;;;;;;;5068256;28;20448;-87
2023/10/07 06:34:32;;;;;;;4.13;3.50;;;;;;;;;;5069989;28;20520;-87
2023/10/07 06:37:00;;;;;;;8.67;4.07;;;;;;;;;;5074407;28;20934;-87
2023/10/07 06:39:30;;;;;;;6.50;4.30;;;;;;;;;;5078360;28;20445;-88
2023/10/07 06:41:59;;;;;;;5.37;4.00;;;;;;;;;;5078327;28;20457;-87
2023/10/07 06:44:26;;;;;;;5.70;3.37;;;;;;;;;;5076919;28;20436;-85
2023/10/07 06:46:56;;;;;;;5.30;2.97;;;;;;;;;;5074709;28;20440;-87
2023/10/07 06:49:24;;;;;;;4.87;2.90;;;;;;;;;;5070998;28;20532;-86
2023/10/07 06:51:56;;;;;;;4.23;2.40;;;;;;;;;;5069743;28;20440;-87
2023/10/07 06:54:25;;;;;;;4.20;2.43;;;;;;;;;;5069850;28;20463;-88
2023/10/07 06:56:54;;;;;;;4.20;2.57;;;;;;;;;;5065710;28;20801;-87
2023/10/07 06:59:27;;;;;;;6.00;2.83;;;;;;;;;;5063573;28;20448;-84
2023/10/07 07:01:55;;;;;;;5.03;2.80;;;;;;;;;;5065019;28;20448;-85
2023/10/07 07:04:23;;;;;;;3.87;2.40;;;;;;;;;;5065301;28;20481;-85
2023/10/07 07:12:21;;;;;;;4.80;2.47;;;;;;;;;;5063125;28;20845;-88
2023/10/07 07:14:59;;;;;;;5.07;3.67;;;;;;;;;;5062745;28;20463;-87
2023/10/07 07:17:30;;;;;;;5.63;3.50;;;;;;;;;;5066420;28;20437;-85
2023/10/07 07:22:39;;;;;;;5.63;4.00;;;;;;;;;;5058514;28;20559;-86
2023/10/07 07:25:10;;;;;;;4.47;3.90;;;;;;;;;;5060129;28;20451;-85
2023/10/07 07:27:37;;;;;;;5.90;3.10;;;;;;;;;;5062493;28;20976;-84
2023/10/07 07:30:08;;;;;;;5.20;2.50;;;;;;;;;;5079964;28;20476;-86
2023/10/07 07:32:35;;;;;;;4.37;3.13;;;;;;;;;;5070918;28;20438;-85
2023/10/07 07:35:03;;;;;;;6.53;3.23;;;;;;;;;;5060685;28;20445;-84
2023/10/07 07:37:31;;;;;;;4.43;3.13;;;;;;;;;;5059805;28;20478;-86
2023/10/07 07:40:04;;;;;;;3.60;3.03;;;;;;;;;;5062930;28;20465;-87
2023/10/07 07:42:34;;;;;;;4.63;2.80;;;;;;;;;;5061902;28;20475;-87
2023/10/07 07:45:15;;;;;;;5.00;3.37;;;;;;;;;;5068297;28;20823;-88
2023/10/07 07:47:43;;;;;;;4.00;2.60;;;;;;;;;;5061185;28;20482;-87
2023/10/07 07:50:11;;;;;;;3.10;2.30;;;;;;;;;;5063232;28;20978;-88
2023/10/07 07:52:39;;;;;;;5.40;3.47;;;;;;;;;;5066516;28;20453;-86
2023/10/07 07:55:07;;;;;;;4.57;2.90;;;;;;;;;;5062405;28;20458;-85
2023/10/07 07:57:34;;;;;;;6.27;2.80;;;;;;;;;;5060386;28;20947;-86
2023/10/07 08:00:05;;;;;;;4.57;2.77;;;;;;;;;;5073096;28;20502;-86
2023/10/07 08:02:35;;;;;;;5.50;3.00;;;;;;;;;;5063532;28;20455;-85
2023/10/07 08:05:04;;;;;;;4.30;3.17;;;;;;;;;;5062624;28;20450;-85
2023/10/07 08:07:32;;;;;;;6.53;4.27;;;;;;;;;;5069095;28;20444;-86
2023/10/07 08:10:03;;;;;;;7.13;3.43;;;;;;;;;;5073321;28;20476;-86
2023/10/07 08:12:33;;;;;;;4.57;2.80;;;;;;;;;;5068562;28;20536;-88
2023/10/07 08:15:14;;;;;;;3.90;2.40;;;;;;;;;;5060307;28;20515;-88
2023/10/07 08:17:44;;;;;;;5.93;3.10;;;;;;;;;;5083928;28;20511;-87
2023/10/07 08:20:22;;;;;;;4.20;3.20;;;;;;;;;;5070880;28;20796;-86
2023/10/07 08:22:52;;;;;;;6.50;3.47;;;;;;;;;;5074466;28;20482;-87
2023/10/07 08:25:35;;;;;;;6.87;3.23;;;;;;;;;;5086301;28;20821;-88
2023/10/07 08:28:18;;;;;;;6.33;3.27;;;;;;;;;;5070573;28;20455;-86
2023/10/07 08:30:46;;;;;;;5.17;3.57;;;;;;;;;;5066953;28;20452;-87
2023/10/07 08:33:15;;;;;;;5.93;3.80;;;;;;;;;;5058965;28;20461;-86
2023/10/07 08:35:47;;;;;;;5.93;3.40;;;;;;;;;;5072820;28;20870;-87
2023/10/07 08:38:22;;;;;;;4.30;2.83;;;;;;;;;;5063101;28;20457;-86
2023/10/07 08:41:07;;;;;;;5.10;3.37;;;;;;;;;;5063974;28;20497;-87
2023/10/07 08:43:38;;;;;;;5.10;2.80;;;;;;;;;;5067465;28;21035;-87
2023/10/07 08:46:08;;;;;;;4.60;3.10;;;;;;;;;;5061700;28;20506;-87
2023/10/07 08:48:38;;;;;;;4.27;2.80;;;;;;;;;;5065901;28;20441;-87
2023/10/07 08:51:14;;;;;;;6.33;2.53;;;;;;;;;;5068525;28;20574;-87
2023/10/07 08:53:42;;;;;;;5.23;2.50;;;;;;;;;;5056565;28;20828;-87
2023/10/07 08:56:10;;;;;;;5.20;2.83;;;;;;;;;;5077124;28;20501;-87
2023/10/07 08:58:40;;;;;;;6.53;3.27;;;;;;;;;;5080412;28;20570;-88
2023/10/07 09:01:16;;;;;;;5.87;3.50;;;;;;;;;;5073173;28;20477;-87
2023/10/07 09:03:47;;;;;;;5.33;3.30;;;;;;;;;;5080308;28;20478;-87
2023/10/07 09:06:16;;;;;;;4.33;2.60;;;;;;;;;;5092851;28;20505;-88
2023/10/07 09:08:45;;;;;;;11.80;3.07;;;;;;;;;;5087045;28;20961;-88
2023/10/07 09:11:18;;;;;;;5.00;2.87;;;;;;;;;;5080618;28;20469;-87
2023/10/07 09:13:47;;;;;;;4.77;2.70;;;;;;;;;;5079776;28;20450;-88
2023/10/07 09:16:15;;;;;;;4.67;2.20;;;;;;;;;;5079525;28;20474;-87
2023/10/07 09:18:42;;;;;;;4.83;2.33;;;;;;;;;;5077689;28;20534;-87
2023/10/07 09:21:11;;;;;;;4.30;2.53;;;;;;;;;;5072237;23;20476;-56
2023/10/07 09:23:47;;;;;;;3.60;2.00;;;;;;;;;;5064134;28;20492;-57
2023/10/07 09:26:22;;;;;;;5.53;2.40;;;;;;;;;;5046942;28;20464;-56
2023/10/07 09:28:59;;;;;;;4.70;2.40;;;;;;;;;;5048757;28;20526;-56
2023/10/07 09:31:27;;;;;;;4.60;2.60;;;;;;;;;;5049651;28;20536;-56
2023/10/07 09:33:55;;;;;;;3.97;2.70;;;;;;;;;;5050714;28;20503;-56
2023/10/07 09:36:33;;;;;;;3.93;2.10;;;;;;;;;;5050145;28;20511;-58
2023/10/07 09:39:31;;;;;;;3.93;2.37;;;;;;;;;;5049043;28;20815;-56
2023/10/07 09:42:25;;;;;;;4.00;2.30;;;;;;;;;;5049067;28;20453;-59
2023/10/07 09:44:53;;;;;;;4.63;2.70;;;;;;;;;;5047642;28;20526;-59
2023/10/07 09:47:21;;;;;;;4.03;2.30;;;;;;;;;;5045304;28;20449;-58
2023/10/07 09:49:50;;;;;;;3.90;2.47;;;;;;;;;;5047146;28;20953;-60
2023/10/07 09:52:18;;;;;;;4.50;2.87;;;;;;;;;;5049120;28;20445;-58
2023/10/07 09:54:55;;;;;;;4.77;2.60;;;;;;;;;;5057760;28;20456;-59
2023/10/07 09:57:29;;;;;;;3.90;2.20;;;;;;;;;;5066008;28;20440;-58
2023/10/07 10:00:32;;;;;;;3.80;2.30;;;;;;;;;;5064177;28;20447;-59
2023/10/07 10:03:06;;;;;;;6.00;3.27;;;;;;;;;;5052627;28;20442;-58
2023/10/07 10:05:44;;;;;;;4.97;3.17;;;;;;;;;;5064448;28;20521;-56
2023/10/07 10:08:36;;;;;;;5.23;3.00;;;;;;;;;;5065566;28;20460;-58
2023/10/07 10:11:18;;;;;;;4.13;2.20;;;;;;;;;;5058033;28;20452;-59
2023/10/07 10:13:57;;;;;;;3.93;2.43;;;;;;;;;;5063922;28;20456;-58
2023/10/07 10:16:29;;;;;;;3.97;2.40;;;;;;;;;;5052523;28;20456;-58
2023/10/07 10:19:17;;;;;;;4.00;2.40;;;;;;;;;;5057381;28;20444;-59
2023/10/07 10:21:43;;;;;;;4.23;2.40;;;;;;;;;;5067994;28;20539;-58
2023/10/07 10:24:14;;;;;;;4.63;2.70;;;;;;;;;;5053393;28;21013;-58
2023/10/07 10:26:44;;;;;;;5.37;2.70;;;;;;;;;;5065602;28;20440;-59
2023/10/07 10:29:25;;;;;;;5.60;2.70;;;;;;;;;;5067037;28;20451;-58
2023/10/07 10:31:58;;;;;;;6.60;2.90;;;;;;;;;;5056058;28;20871;-57
2023/10/07 10:34:26;;;;;;;3.93;2.70;;;;;;;;;;5051528;28;20815;-57
2023/10/07 10:36:56;;;;;;;4.63;2.47;;;;;;;;;;5067968;28;20440;-58
2023/10/07 10:39:25;;;;;;;6.60;2.53;;;;;;;;;;5067704;28;20479;-57
2023/10/07 10:41:55;;;;;;;3.10;2.27;;;;;;;;;;5068815;28;21430;-58
2023/10/07 10:44:22;;;;;;;4.23;2.40;;;;;;;;;;5067383;28;20511;-57
2023/10/07 10:46:50;;;;;;;5.10;2.67;;;;;;;;;;5059379;28;20492;-58
2023/10/07 10:49:18;;;;;;;5.13;2.87;;;;;;;;;;5059873;28;20608;-58
2023/10/07 10:51:47;;;;;;;3.73;2.27;;;;;;;;;;5059456;28;20534;-58
2023/10/07 10:54:15;;;;;;;4.83;2.57;;;;;;;;;;5075016;22;20870;-54
2023/10/07 10:56:55;;;;;;;5.33;2.83;;;;;;;;;;5057447;28;20480;-53
2023/10/07 10:59:35;;;;;;;4.10;2.70;;;;;;;;;;5069354;28;21006;-53
2023/10/07 11:02:05;;;;;;;7.03;3.80;;;;;;;;;;5072883;28;20842;-53
2023/10/07 11:04:33;;;;;;;4.20;2.80;;;;;;;;;;5093025;28;20482;-55
2023/10/07 11:07:00;;;;;;;5.30;2.97;;;;;;;;;;5091066;28;20454;-54
2023/10/07 11:09:35;;;;;;;5.13;2.93;;;;;;;;;;5095615;28;20571;-54
2023/10/07 11:12:09;;;;;;;5.00;2.90;;;;;;;;;;5102580;28;20446;-54
2023/10/07 11:14:38;;;;;;;4.40;2.53;;;;;;;;;;5089689;28;20550;-54
2023/10/07 11:17:06;;;;;;;4.17;2.20;;;;;;;;;;5086361;28;20534;-54
2023/10/07 11:19:40;;;;;;;3.77;2.40;;;;;;;;;;5087880;28;20834;-53
2023/10/07 11:22:08;;;;;;;5.07;2.57;;;;;;;;;;5097456;28;20449;-53
2023/10/07 11:24:37;;;;;;;4.00;2.40;;;;;;;;;;5086576;28;21008;-53
2023/10/07 11:27:08;;;;;;;4.00;2.20;;;;;;;;;;5103458;28;20454;-53
2023/10/07 11:29:35;;;;;;;4.07;2.50;;;;;;;;;;5097396;28;20444;-54
2023/10/07 11:32:06;;;;;;;4.87;2.63;;;;;;;;;;5109746;28;20447;-53
2023/10/07 11:34:37;;;;;;;3.57;2.33;;;;;;;;;;5090274;28;20468;-53
2023/10/07 11:37:09;;;;;;;4.87;2.43;;;;;;;;;;5100184;28;20780;-53
2023/10/07 11:39:44;;;;;;;4.40;2.00;;;;;;;;;;5105538;28;20558;-53
2023/10/07 11:42:16;;;;;;;3.97;2.87;;;;;;;;;;5105284;28;20462;-53
2023/10/07 11:44:46;;;;;;;4.33;2.50;;;;;;;;;;5093780;28;20486;-54
2023/10/07 11:47:16;;;;;;;4.70;2.40;;;;;;;;;;5095712;28;20450;-55
2023/10/07 11:49:43;;;;;;;5.57;3.00;;;;;;;;;;5084377;28;20895;-54
2023/10/07 11:52:10;;;;;;;4.67;2.67;;;;;;;;;;5094206;28;20467;-55
2023/10/07 11:54:38;;;;;;;4.17;2.30;;;;;;;;;;5105152;28;20554;-54
2023/10/07 11:57:06;;;;;;;3.97;2.83;;;;;;;;;;5089095;28;20466;-54
2023/10/07 11:59:35;;;;;;;3.87;2.70;;;;;;;;;;5094952;28;20479;-53
2023/10/07 12:02:09;;;;;;;4.50;2.90;;;;;;;;;;5097668;28;20463;-54
2023/10/07 12:04:39;;;;;;;5.00;3.07;;;;;;;;;;5108533;28;21489;-53
2023/10/07 12:07:08;;;;;;;6.13;2.80;;;;;;;;;;5109211;28;20525;-56
2023/10/07 12:09:37;;;;;;;7.77;2.60;;;;;;;;;;5106785;28;20438;-55
2023/10/07 12:12:06;;;;;;;4.60;2.90;;;;;;;;;;5106097;28;20702;-56
2023/10/07 12:14:34;;;;;;;3.70;2.60;;;;;;;;;;5108963;28;20458;-53
2023/10/07 12:17:01;;;;;;;7.57;2.93;;;;;;;;;;5109008;28;20525;-55
2023/10/07 12:19:30;;;;;;;3.80;2.40;;;;;;;;;;5099775;28;20941;-53
2023/10/07 12:22:00;;;;;;;4.07;2.40;;;;;;;;;;5108873;28;20906;-55
2023/10/07 12:24:27;;;;;;;3.93;2.30;;;;;;;;;;5108534;28;20484;-54
2023/10/07 12:26:56;;;;;;;4.47;2.50;;;;;;;;;;5108885;28;20525;-55
2023/10/07 12:29:24;;;;;;;3.50;2.53;;;;;;;;;;5108332;28;20470;-53
2023/10/07 12:31:52;;;;;;;4.07;2.60;;;;;;;;;;5108601;28;20887;-54
2023/10/07 12:34:20;;;;;;;4.53;2.93;;;;;;;;;;5108652;28;20559;-55
2023/10/07 12:36:47;;;;;;;4.10;2.60;;;;;;;;;;5108649;28;20438;-55
2023/10/07 12:39:16;;;;;;;5.60;3.13;;;;;;;;;;5108531;28;20462;-54
2023/10/07 12:41:43;;;;;;;4.20;2.80;;;;;;;;;;5103689;28;20438;-53
2023/10/07 12:44:11;;;;;;;5.40;3.13;;;;;;;;;;5108116;28;20478;-55
2023/10/07 12:46:39;;;;;;;4.20;2.97;;;;;;;;;;5108192;28;20519;-54
2023/10/07 12:49:10;;;;;;;4.70;2.50;;;;;;;;;;5099511;28;20928;-54
2023/10/07 12:51:38;;;;;;;5.33;3.10;;;;;;;;;;5108198;28;20461;-54
2023/10/07 12:54:08;;;;;;;3.83;2.23;;;;;;;;;;5108043;28;20512;-53
2023/10/07 12:56:37;;;;;;;4.70;2.67;;;;;;;;;;5107716;28;20439;-54
2023/10/07 12:59:07;;;;;;;3.53;2.30;;;;;;;;;;5108223;28;20542;-55
2023/10/07 13:01:35;;;;;;;3.57;2.40;;;;;;;;;;5107958;28;20765;-54
2023/10/07 13:04:02;;;;;;;4.90;2.70;;;;;;;;;;5107913;28;20458;-53
2023/10/07 13:06:30;;;;;;;5.10;2.53;;;;;;;;;;5108080;28;20515;-53
2023/10/07 13:09:03;;;;;;;6.33;3.30;;;;;;;;;;5107941;28;20439;-54
2023/10/07 13:11:30;;;;;;;4.60;2.80;;;;;;;;;;5107722;28;20442;-55
2023/10/07 13:14:00;;;;;;;4.40;2.47;;;;;;;;;;5107438;28;20562;-54
2023/10/07 13:16:37;;;;;;;4.73;2.80;;;;;;;;;;5106505;28;20442;-54
2023/10/07 13:19:05;;;;;;;6.90;3.23;;;;;;;;;;5101006;28;20525;-55
2023/10/07 13:21:34;;;;;;;6.80;3.30;;;;;;;;;;5103835;28;20821;-54
2023/10/07 13:24:05;;;;;;;4.07;2.80;;;;;;;;;;5100386;28;20498;-55
2023/10/07 13:26:32;;;;;;;4.87;3.63;;;;;;;;;;5103635;28;20686;-54
2023/10/07 13:29:03;;;;;;;4.20;2.37;;;;;;;;;;5107530;28;20902;-54
2023/10/07 13:31:30;;;;;;;3.60;2.57;;;;;;;;;;5107032;28;20447;-54
2023/10/07 13:33:57;;;;;;;5.37;2.67;;;;;;;;;;5098756;28;21055;-53
2023/10/07 13:36:25;;;;;;;5.90;3.03;;;;;;;;;;5107405;28;20438;-53
2023/10/07 13:38:52;;;;;;;4.93;3.30;;;;;;;;;;5107266;28;20498;-54
2023/10/07 13:41:20;;;;;;;3.40;2.30;;;;;;;;;;5107182;28;20474;-55
2023/10/07 13:43:48;;;;;;;4.40;2.77;;;;;;;;;;5107436;28;20438;-53
2023/10/07 13:46:16;;;;;;;6.40;2.77;;;;;;;;;;5107223;28;20481;-55
2023/10/07 13:48:44;;;;;;;8.90;2.60;;;;;;;;;;5105837;28;20443;-55
2023/10/07 13:51:11;;;;;;;4.10;2.53;;;;;;;;;;5107194;28;20466;-55
2023/10/07 13:53:51;;;;;;;4.73;2.93;;;;;;;;;;5093015;28;20448;-54
2023/10/07 13:56:33;;;;;;;4.67;3.10;;;;;;;;;;5087257;28;20767;-54
2023/10/07 13:59:04;;;;;;;4.03;2.80;;;;;;;;;;5090206;28;20941;-53
2023/10/07 14:01:32;;;;;;;5.43;3.40;;;;;;;;;;5097652;28;20446;-54
2023/10/07 14:04:00;;;;;;;4.40;3.23;;;;;;;;;;5102218;28;20558;-54
2023/10/07 14:06:27;;;;;;;4.70;3.00;;;;;;;;;;5106605;28;20595;-54
2023/10/07 14:08:55;;;;;;;4.23;2.50;;;;;;;;;;5106984;28;20453;-54
2023/10/07 14:11:22;;;;;;;5.20;2.40;;;;;;;;;;5106952;28;20555;-55
2023/10/07 14:13:49;;;;;;;4.60;3.00;;;;;;;;;;5106041;28;20504;-53
2023/10/07 14:16:17;;;;;;;3.77;2.70;;;;;;;;;;5106047;28;20495;-53
2023/10/07 14:18:46;;;;;;;4.87;2.63;;;;;;;;;;5104214;28;20451;-54
2023/10/07 14:21:13;;;;;;;5.40;3.17;;;;;;;;;;5106509;28;20443;-54
2023/10/07 14:23:40;;;;;;;4.80;2.73;;;;;;;;;;5106687;28;20478;-54
2023/10/07 14:26:12;;;;;;;3.73;2.80;;;;;;;;;;5106527;28;20470;-54
2023/10/07 14:28:40;;;;;;;4.77;2.77;;;;;;;;;;5106885;28;20442;-54
2023/10/07 14:31:09;;;;;;;4.20;2.80;;;;;;;;;;5092058;28;20449;-53
2023/10/07 14:33:36;;;;;;;3.93;2.60;;;;;;;;;;5100794;28;20461;-54
2023/10/07 14:36:09;;;;;;;4.30;2.67;;;;;;;;;;5095579;28;20528;-54
2023/10/07 14:38:37;;;;;;;3.70;2.50;;;;;;;;;;5099868;28;20446;-54
2023/10/07 14:41:07;;;;;;;4.37;2.40;;;;;;;;;;5097750;28;20632;-53
2023/10/07 14:43:35;;;;;;;4.07;2.70;;;;;;;;;;5101508;28;20473;-54
2023/10/07 14:46:04;;;;;;;5.20;2.80;;;;;;;;;;5107564;28;20535;-54
2023/10/07 14:48:32;;;;;;;5.77;3.60;;;;;;;;;;5104358;28;20470;-53
2023/10/07 14:51:06;;;;;;;5.27;3.13;;;;;;;;;;5091947;28;20435;-53
2023/10/07 14:53:33;;;;;;;7.67;3.33;;;;;;;;;;5099033;28;20997;-54
2023/10/07 14:56:01;;;;;;;5.50;3.23;;;;;;;;;;5085837;28;21011;-54
2023/10/07 14:58:30;;;;;;;5.80;3.20;;;;;;;;;;5101084;28;20442;-53
2023/10/07 15:00:57;;;;;;;4.50;3.50;;;;;;;;;;5107143;28;20886;-53
2023/10/07 15:03:25;;;;;;;6.13;3.23;;;;;;;;;;5110239;28;20442;-55
2023/10/07 15:05:55;;;;;;;5.57;3.63;;;;;;;;;;5110509;28;20988;-54
2023/10/07 15:08:24;;;;;;;5.40;3.20;;;;;;;;;;5110621;28;20442;-54
2023/10/07 15:10:52;;;;;;;6.40;3.70;;;;;;;;;;5109256;28;20519;-54
2023/10/07 15:13:19;;;;;;;5.10;3.07;;;;;;;;;;5110156;28;20566;-55
2023/10/07 15:15:47;;;;;;;7.73;3.93;;;;;;;;;;5108599;28;20551;-54